sensor_id;sensor_type;location;lat;lon;timestamp;P1;durP1;ratioP1;P2;durP2;ratioP2
20324;SDS011;10320;49.482;11.256;2022-12-11T00:02:10;23.50;;;19.30;;
20324;SDS011;10320;49.482;11.256;2022-12-11T00:04:36;24.83;;;19.47;;
20324;SDS011;10320;49.482;11.256;2022-12-11T00:07:02;24.23;;;19.13;;
20324;SDS011;10320;49.482;11.256;2022-12-11T00:09:28;23.40;;;19.47;;
20324;SDS011;10320;49.482;11.256;2022-12-11T00:11:55;23.97;;;19.67;;
20324;SDS011;10320;49.482;11.256;2022-12-11T00:14:21;23.37;;;18.77;;
20324;SDS011;10320;49.482;11.256;2022-12-11T00:16:47;22.70;;;19.00;;
20324;SDS011;10320;49.482;11.256;2022-12-11T00:19:13;23.73;;;18.47;;
20324;SDS011;10320;49.482;11.256;2022-12-11T00:21:39;23.77;;;19.30;;
20324;SDS011;10320;49.482;11.256;2022-12-11T00:24:06;24.50;;;18.80;;
20324;SDS011;10320;49.482;11.256;2022-12-11T00:26:32;21.90;;;18.87;;
20324;SDS011;10320;49.482;11.256;2022-12-11T00:28:58;22.20;;;18.27;;
20324;SDS011;10320;49.482;11.256;2022-12-11T00:31:24;23.33;;;18.80;;
20324;SDS011;10320;49.482;11.256;2022-12-11T00:33:50;24.50;;;19.07;;
20324;SDS011;10320;49.482;11.256;2022-12-11T00:36:23;20.90;;;17.60;;
20324;SDS011;10320;49.482;11.256;2022-12-11T00:38:49;21.07;;;17.70;;
20324;SDS011;10320;49.482;11.256;2022-12-11T00:41:16;21.23;;;17.47;;
20324;SDS011;10320;49.482;11.256;2022-12-11T00:43:42;23.47;;;17.70;;
20324;SDS011;10320;49.482;11.256;2022-12-11T00:46:09;21.00;;;17.47;;
20324;SDS011;10320;49.482;11.256;2022-12-11T00:48:36;20.37;;;16.63;;
20324;SDS011;10320;49.482;11.256;2022-12-11T00:51:02;23.83;;;18.50;;
20324;SDS011;10320;49.482;11.256;2022-12-11T00:53:28;22.07;;;17.20;;
20324;SDS011;10320;49.482;11.256;2022-12-11T00:55:54;22.30;;;17.57;;
20324;SDS011;10320;49.482;11.256;2022-12-11T00:58:21;21.03;;;17.10;;
20324;SDS011;10320;49.482;11.256;2022-12-11T01:00:47;19.43;;;16.10;;
20324;SDS011;10320;49.482;11.256;2022-12-11T01:03:14;21.50;;;17.17;;
20324;SDS011;10320;49.482;11.256;2022-12-11T01:05:41;21.43;;;16.67;;
20324;SDS011;10320;49.482;11.256;2022-12-11T01:08:07;21.37;;;17.87;;
20324;SDS011;10320;49.482;11.256;2022-12-11T01:10:33;22.67;;;17.53;;
20324;SDS011;10320;49.482;11.256;2022-12-11T01:13:03;21.17;;;16.77;;
20324;SDS011;10320;49.482;11.256;2022-12-11T01:15:40;21.07;;;16.77;;
20324;SDS011;10320;49.482;11.256;2022-12-11T01:18:08;19.70;;;16.30;;
20324;SDS011;10320;49.482;11.256;2022-12-11T01:20:35;21.27;;;17.17;;
20324;SDS011;10320;49.482;11.256;2022-12-11T01:23:02;21.30;;;16.77;;
20324;SDS011;10320;49.482;11.256;2022-12-11T01:25:28;22.07;;;17.20;;
20324;SDS011;10320;49.482;11.256;2022-12-11T01:27:54;21.57;;;17.43;;
20324;SDS011;10320;49.482;11.256;2022-12-11T01:30:21;21.37;;;17.13;;
20324;SDS011;10320;49.482;11.256;2022-12-11T01:32:48;20.40;;;16.73;;
20324;SDS011;10320;49.482;11.256;2022-12-11T01:35:14;21.83;;;17.17;;
20324;SDS011;10320;49.482;11.256;2022-12-11T01:37:40;20.70;;;17.13;;
20324;SDS011;10320;49.482;11.256;2022-12-11T01:40:06;23.30;;;17.73;;
20324;SDS011;10320;49.482;11.256;2022-12-11T01:42:33;23.70;;;18.07;;
20324;SDS011;10320;49.482;11.256;2022-12-11T01:47:44;23.90;;;19.23;;
20324;SDS011;10320;49.482;11.256;2022-12-11T01:50:10;25.57;;;20.50;;
20324;SDS011;10320;49.482;11.256;2022-12-11T01:52:36;25.10;;;20.33;;
20324;SDS011;10320;49.482;11.256;2022-12-11T01:55:02;25.57;;;20.00;;
20324;SDS011;10320;49.482;11.256;2022-12-11T01:57:28;25.47;;;19.90;;
20324;SDS011;10320;49.482;11.256;2022-12-11T01:59:54;27.80;;;21.07;;
20324;SDS011;10320;49.482;11.256;2022-12-11T02:02:25;26.20;;;20.80;;
20324;SDS011;10320;49.482;11.256;2022-12-11T02:04:52;24.80;;;20.33;;
20324;SDS011;10320;49.482;11.256;2022-12-11T02:07:18;23.83;;;19.73;;
20324;SDS011;10320;49.482;11.256;2022-12-11T02:09:44;23.10;;;18.97;;
20324;SDS011;10320;49.482;11.256;2022-12-11T02:12:25;24.57;;;19.67;;
20324;SDS011;10320;49.482;11.256;2022-12-11T02:17:43;22.63;;;18.73;;
20324;SDS011;10320;49.482;11.256;2022-12-11T02:30:44;22.43;;;18.07;;
20324;SDS011;10320;49.482;11.256;2022-12-11T02:33:12;22.60;;;19.30;;
20324;SDS011;10320;49.482;11.256;2022-12-11T02:35:39;24.17;;;18.80;;
20324;SDS011;10320;49.482;11.256;2022-12-11T02:38:11;24.10;;;19.30;;
20324;SDS011;10320;49.482;11.256;2022-12-11T02:40:42;23.30;;;19.47;;
20324;SDS011;10320;49.482;11.256;2022-12-11T02:43:10;23.83;;;19.57;;
20324;SDS011;10320;49.482;11.256;2022-12-11T02:45:38;25.50;;;19.93;;
20324;SDS011;10320;49.482;11.256;2022-12-11T02:48:05;23.67;;;19.43;;
20324;SDS011;10320;49.482;11.256;2022-12-11T02:50:32;26.03;;;20.60;;
20324;SDS011;10320;49.482;11.256;2022-12-11T02:52:59;24.57;;;20.67;;
20324;SDS011;10320;49.482;11.256;2022-12-11T02:55:28;25.00;;;21.43;;
20324;SDS011;10320;49.482;11.256;2022-12-11T02:58:16;25.93;;;21.00;;
20324;SDS011;10320;49.482;11.256;2022-12-11T03:00:43;25.43;;;20.87;;
20324;SDS011;10320;49.482;11.256;2022-12-11T03:03:09;25.33;;;20.77;;
20324;SDS011;10320;49.482;11.256;2022-12-11T03:05:35;26.40;;;21.13;;
20324;SDS011;10320;49.482;11.256;2022-12-11T03:08:01;27.53;;;22.57;;
20324;SDS011;10320;49.482;11.256;2022-12-11T03:10:27;26.63;;;21.37;;
20324;SDS011;10320;49.482;11.256;2022-12-11T03:12:54;26.63;;;21.37;;
20324;SDS011;10320;49.482;11.256;2022-12-11T03:15:22;27.17;;;21.53;;
20324;SDS011;10320;49.482;11.256;2022-12-11T03:22:56;27.17;;;21.10;;
20324;SDS011;10320;49.482;11.256;2022-12-11T03:25:25;25.03;;;20.50;;
20324;SDS011;10320;49.482;11.256;2022-12-11T03:28:06;24.63;;;19.77;;
20324;SDS011;10320;49.482;11.256;2022-12-11T03:30:35;25.33;;;20.33;;
20324;SDS011;10320;49.482;11.256;2022-12-11T03:33:02;24.27;;;20.57;;
20324;SDS011;10320;49.482;11.256;2022-12-11T03:35:33;24.93;;;19.90;;
20324;SDS011;10320;49.482;11.256;2022-12-11T03:38:10;23.17;;;19.90;;
20324;SDS011;10320;49.482;11.256;2022-12-11T03:40:38;23.33;;;19.43;;
20324;SDS011;10320;49.482;11.256;2022-12-11T03:43:05;24.23;;;19.33;;
20324;SDS011;10320;49.482;11.256;2022-12-11T03:45:31;23.97;;;19.87;;
20324;SDS011;10320;49.482;11.256;2022-12-11T03:47:58;24.03;;;19.77;;
20324;SDS011;10320;49.482;11.256;2022-12-11T03:50:26;23.30;;;18.97;;
20324;SDS011;10320;49.482;11.256;2022-12-11T03:52:53;24.70;;;19.13;;
20324;SDS011;10320;49.482;11.256;2022-12-11T03:55:20;21.97;;;18.13;;
20324;SDS011;10320;49.482;11.256;2022-12-11T03:57:46;21.60;;;18.17;;
20324;SDS011;10320;49.482;11.256;2022-12-11T04:00:14;22.33;;;18.40;;
20324;SDS011;10320;49.482;11.256;2022-12-11T04:02:41;21.73;;;18.37;;
20324;SDS011;10320;49.482;11.256;2022-12-11T04:05:07;22.37;;;18.17;;
20324;SDS011;10320;49.482;11.256;2022-12-11T04:07:33;21.20;;;18.23;;
20324;SDS011;10320;49.482;11.256;2022-12-11T04:09:59;21.43;;;17.70;;
20324;SDS011;10320;49.482;11.256;2022-12-11T04:12:27;20.47;;;17.80;;
20324;SDS011;10320;49.482;11.256;2022-12-11T04:14:53;20.93;;;18.23;;
20324;SDS011;10320;49.482;11.256;2022-12-11T04:17:31;20.53;;;17.83;;
20324;SDS011;10320;49.482;11.256;2022-12-11T04:20:17;21.57;;;17.93;;
20324;SDS011;10320;49.482;11.256;2022-12-11T04:23:03;22.40;;;18.33;;
20324;SDS011;10320;49.482;11.256;2022-12-11T04:25:47;20.93;;;17.30;;
20324;SDS011;10320;49.482;11.256;2022-12-11T04:28:14;22.53;;;17.60;;
20324;SDS011;10320;49.482;11.256;2022-12-11T04:30:40;21.47;;;17.97;;
20324;SDS011;10320;49.482;11.256;2022-12-11T04:33:06;22.87;;;18.20;;
20324;SDS011;10320;49.482;11.256;2022-12-11T04:35:32;22.63;;;18.27;;
20324;SDS011;10320;49.482;11.256;2022-12-11T04:37:58;22.70;;;18.40;;
20324;SDS011;10320;49.482;11.256;2022-12-11T04:40:27;21.87;;;17.87;;
20324;SDS011;10320;49.482;11.256;2022-12-11T04:42:53;22.23;;;17.70;;
20324;SDS011;10320;49.482;11.256;2022-12-11T04:45:19;21.90;;;18.67;;
20324;SDS011;10320;49.482;11.256;2022-12-11T04:47:45;22.97;;;18.67;;
20324;SDS011;10320;49.482;11.256;2022-12-11T04:50:12;22.13;;;18.63;;
20324;SDS011;10320;49.482;11.256;2022-12-11T04:52:38;21.93;;;18.33;;
20324;SDS011;10320;49.482;11.256;2022-12-11T04:55:05;23.53;;;18.77;;
20324;SDS011;10320;49.482;11.256;2022-12-11T04:57:31;22.47;;;18.67;;
20324;SDS011;10320;49.482;11.256;2022-12-11T04:59:57;20.93;;;17.03;;
20324;SDS011;10320;49.482;11.256;2022-12-11T05:02:24;21.87;;;17.50;;
20324;SDS011;10320;49.482;11.256;2022-12-11T05:04:50;21.33;;;18.17;;
20324;SDS011;10320;49.482;11.256;2022-12-11T05:07:16;21.27;;;17.57;;
20324;SDS011;10320;49.482;11.256;2022-12-11T05:09:42;21.93;;;18.40;;
20324;SDS011;10320;49.482;11.256;2022-12-11T05:12:08;22.30;;;18.33;;
20324;SDS011;10320;49.482;11.256;2022-12-11T05:14:34;23.37;;;19.17;;
20324;SDS011;10320;49.482;11.256;2022-12-11T05:17:00;23.80;;;18.60;;
20324;SDS011;10320;49.482;11.256;2022-12-11T05:19:26;21.00;;;17.13;;
20324;SDS011;10320;49.482;11.256;2022-12-11T05:21:52;20.80;;;16.13;;
20324;SDS011;10320;49.482;11.256;2022-12-11T05:24:18;20.13;;;17.23;;
20324;SDS011;10320;49.482;11.256;2022-12-11T05:26:44;19.33;;;16.00;;
20324;SDS011;10320;49.482;11.256;2022-12-11T05:29:10;20.57;;;17.23;;
20324;SDS011;10320;49.482;11.256;2022-12-11T05:31:36;21.67;;;18.10;;
20324;SDS011;10320;49.482;11.256;2022-12-11T05:34:02;21.37;;;17.53;;
20324;SDS011;10320;49.482;11.256;2022-12-11T05:36:32;20.37;;;17.20;;
20324;SDS011;10320;49.482;11.256;2022-12-11T05:38:59;20.47;;;18.00;;
20324;SDS011;10320;49.482;11.256;2022-12-11T05:41:26;22.17;;;19.03;;
20324;SDS011;10320;49.482;11.256;2022-12-11T05:43:52;21.57;;;17.70;;
20324;SDS011;10320;49.482;11.256;2022-12-11T05:46:20;21.27;;;17.27;;
20324;SDS011;10320;49.482;11.256;2022-12-11T05:48:47;20.77;;;17.23;;
20324;SDS011;10320;49.482;11.256;2022-12-11T05:51:13;22.33;;;18.03;;
20324;SDS011;10320;49.482;11.256;2022-12-11T05:53:41;20.83;;;17.20;;
20324;SDS011;10320;49.482;11.256;2022-12-11T05:56:09;21.10;;;17.60;;
20324;SDS011;10320;49.482;11.256;2022-12-11T05:58:35;21.53;;;17.20;;
20324;SDS011;10320;49.482;11.256;2022-12-11T06:01:01;21.37;;;17.63;;
20324;SDS011;10320;49.482;11.256;2022-12-11T06:03:31;20.80;;;16.77;;
20324;SDS011;10320;49.482;11.256;2022-12-11T06:06:00;20.30;;;16.73;;
20324;SDS011;10320;49.482;11.256;2022-12-11T06:08:26;21.77;;;18.33;;
20324;SDS011;10320;49.482;11.256;2022-12-11T06:10:53;21.10;;;16.77;;
20324;SDS011;10320;49.482;11.256;2022-12-11T06:13:19;20.47;;;16.80;;
20324;SDS011;10320;49.482;11.256;2022-12-11T06:15:45;19.53;;;15.90;;
20324;SDS011;10320;49.482;11.256;2022-12-11T06:18:11;21.67;;;17.63;;
20324;SDS011;10320;49.482;11.256;2022-12-11T06:20:37;20.37;;;16.83;;
20324;SDS011;10320;49.482;11.256;2022-12-11T06:23:03;21.00;;;16.50;;
20324;SDS011;10320;49.482;11.256;2022-12-11T06:25:29;22.53;;;17.00;;
20324;SDS011;10320;49.482;11.256;2022-12-11T06:27:55;20.77;;;17.50;;
20324;SDS011;10320;49.482;11.256;2022-12-11T06:30:21;20.87;;;16.53;;
20324;SDS011;10320;49.482;11.256;2022-12-11T06:32:47;20.70;;;17.03;;
20324;SDS011;10320;49.482;11.256;2022-12-11T06:35:14;19.47;;;16.63;;
20324;SDS011;10320;49.482;11.256;2022-12-11T06:37:40;22.90;;;17.70;;
20324;SDS011;10320;49.482;11.256;2022-12-11T06:40:06;20.57;;;16.73;;
20324;SDS011;10320;49.482;11.256;2022-12-11T06:42:33;20.37;;;16.90;;
20324;SDS011;10320;49.482;11.256;2022-12-11T06:45:00;24.30;;;17.50;;
20324;SDS011;10320;49.482;11.256;2022-12-11T06:47:26;21.00;;;17.00;;
20324;SDS011;10320;49.482;11.256;2022-12-11T06:49:53;20.63;;;17.10;;
20324;SDS011;10320;49.482;11.256;2022-12-11T06:52:20;21.40;;;17.13;;
20324;SDS011;10320;49.482;11.256;2022-12-11T06:54:46;23.63;;;18.00;;
20324;SDS011;10320;49.482;11.256;2022-12-11T06:57:12;23.90;;;18.93;;
20324;SDS011;10320;49.482;11.256;2022-12-11T06:59:39;23.60;;;18.90;;
20324;SDS011;10320;49.482;11.256;2022-12-11T07:02:05;22.37;;;18.30;;
20324;SDS011;10320;49.482;11.256;2022-12-11T07:04:31;24.67;;;19.67;;
20324;SDS011;10320;49.482;11.256;2022-12-11T07:06:58;26.90;;;20.93;;
20324;SDS011;10320;49.482;11.256;2022-12-11T07:09:24;26.77;;;20.07;;
20324;SDS011;10320;49.482;11.256;2022-12-11T07:11:50;25.77;;;20.53;;
20324;SDS011;10320;49.482;11.256;2022-12-11T07:14:16;26.03;;;21.17;;
20324;SDS011;10320;49.482;11.256;2022-12-11T07:16:42;27.73;;;21.87;;
20324;SDS011;10320;49.482;11.256;2022-12-11T07:19:08;29.57;;;23.43;;
20324;SDS011;10320;49.482;11.256;2022-12-11T07:21:35;25.60;;;21.07;;
20324;SDS011;10320;49.482;11.256;2022-12-11T07:24:01;26.67;;;21.17;;
20324;SDS011;10320;49.482;11.256;2022-12-11T07:26:28;27.07;;;22.10;;
20324;SDS011;10320;49.482;11.256;2022-12-11T07:28:57;23.43;;;19.50;;
20324;SDS011;10320;49.482;11.256;2022-12-11T07:31:24;24.20;;;19.17;;
20324;SDS011;10320;49.482;11.256;2022-12-11T07:33:52;21.60;;;18.90;;
20324;SDS011;10320;49.482;11.256;2022-12-11T07:36:18;25.53;;;20.80;;
20324;SDS011;10320;49.482;11.256;2022-12-11T07:38:44;24.17;;;20.20;;
20324;SDS011;10320;49.482;11.256;2022-12-11T07:41:12;23.50;;;20.53;;
20324;SDS011;10320;49.482;11.256;2022-12-11T07:43:38;21.87;;;18.83;;
20324;SDS011;10320;49.482;11.256;2022-12-11T07:46:09;21.17;;;18.00;;
20324;SDS011;10320;49.482;11.256;2022-12-11T07:48:37;21.93;;;18.53;;
20324;SDS011;10320;49.482;11.256;2022-12-11T07:51:10;21.37;;;18.00;;
20324;SDS011;10320;49.482;11.256;2022-12-11T07:53:36;22.20;;;17.97;;
20324;SDS011;10320;49.482;11.256;2022-12-11T07:56:02;22.13;;;18.13;;
20324;SDS011;10320;49.482;11.256;2022-12-11T07:58:28;21.00;;;17.90;;
20324;SDS011;10320;49.482;11.256;2022-12-11T08:00:54;20.70;;;17.90;;
20324;SDS011;10320;49.482;11.256;2022-12-11T08:03:22;20.47;;;17.17;;
20324;SDS011;10320;49.482;11.256;2022-12-11T08:05:48;21.63;;;18.00;;
20324;SDS011;10320;49.482;11.256;2022-12-11T08:08:15;20.23;;;17.50;;
20324;SDS011;10320;49.482;11.256;2022-12-11T08:10:41;19.27;;;16.63;;
20324;SDS011;10320;49.482;11.256;2022-12-11T08:13:07;19.43;;;16.90;;
20324;SDS011;10320;49.482;11.256;2022-12-11T08:15:33;20.20;;;17.50;;
20324;SDS011;10320;49.482;11.256;2022-12-11T08:18:00;16.70;;;14.90;;
20324;SDS011;10320;49.482;11.256;2022-12-11T08:20:26;17.37;;;15.40;;
20324;SDS011;10320;49.482;11.256;2022-12-11T08:22:52;17.80;;;16.00;;
20324;SDS011;10320;49.482;11.256;2022-12-11T08:25:18;16.60;;;14.47;;
20324;SDS011;10320;49.482;11.256;2022-12-11T08:27:44;15.77;;;14.17;;
20324;SDS011;10320;49.482;11.256;2022-12-11T08:30:10;15.97;;;14.30;;
20324;SDS011;10320;49.482;11.256;2022-12-11T08:32:36;15.93;;;14.27;;
20324;SDS011;10320;49.482;11.256;2022-12-11T08:35:02;17.37;;;15.57;;
20324;SDS011;10320;49.482;11.256;2022-12-11T08:37:28;17.43;;;15.23;;
20324;SDS011;10320;49.482;11.256;2022-12-11T08:39:54;16.13;;;14.00;;
20324;SDS011;10320;49.482;11.256;2022-12-11T08:42:20;16.77;;;15.00;;
20324;SDS011;10320;49.482;11.256;2022-12-11T08:44:46;16.37;;;14.67;;
20324;SDS011;10320;49.482;11.256;2022-12-11T08:47:12;17.10;;;14.93;;
20324;SDS011;10320;49.482;11.256;2022-12-11T08:49:39;16.83;;;15.13;;
20324;SDS011;10320;49.482;11.256;2022-12-11T08:52:05;14.57;;;13.07;;
20324;SDS011;10320;49.482;11.256;2022-12-11T08:54:31;17.73;;;14.97;;
20324;SDS011;10320;49.482;11.256;2022-12-11T08:56:57;17.57;;;15.10;;
20324;SDS011;10320;49.482;11.256;2022-12-11T08:59:24;15.70;;;14.00;;
20324;SDS011;10320;49.482;11.256;2022-12-11T09:01:50;17.37;;;14.37;;
20324;SDS011;10320;49.482;11.256;2022-12-11T09:04:16;15.60;;;13.83;;
20324;SDS011;10320;49.482;11.256;2022-12-11T09:06:42;15.63;;;13.80;;
20324;SDS011;10320;49.482;11.256;2022-12-11T09:09:08;15.43;;;13.83;;
20324;SDS011;10320;49.482;11.256;2022-12-11T09:11:35;16.10;;;14.40;;
20324;SDS011;10320;49.482;11.256;2022-12-11T09:14:02;16.10;;;13.60;;
20324;SDS011;10320;49.482;11.256;2022-12-11T09:16:28;15.00;;;13.50;;
20324;SDS011;10320;49.482;11.256;2022-12-11T09:18:55;16.07;;;14.27;;
20324;SDS011;10320;49.482;11.256;2022-12-11T09:21:25;14.67;;;13.17;;
20324;SDS011;10320;49.482;11.256;2022-12-11T09:23:56;14.97;;;13.37;;
20324;SDS011;10320;49.482;11.256;2022-12-11T09:26:22;15.97;;;14.27;;
20324;SDS011;10320;49.482;11.256;2022-12-11T09:28:49;15.47;;;13.73;;
20324;SDS011;10320;49.482;11.256;2022-12-11T09:31:21;14.47;;;12.67;;
20324;SDS011;10320;49.482;11.256;2022-12-11T09:33:48;13.83;;;12.33;;
20324;SDS011;10320;49.482;11.256;2022-12-11T09:36:14;16.17;;;14.48;;
20324;SDS011;10320;49.482;11.256;2022-12-11T09:38:40;15.00;;;13.40;;
20324;SDS011;10320;49.482;11.256;2022-12-11T09:43:56;15.30;;;13.17;;
20324;SDS011;10320;49.482;11.256;2022-12-11T09:46:24;15.20;;;12.90;;
20324;SDS011;10320;49.482;11.256;2022-12-11T09:48:51;15.13;;;13.60;;
20324;SDS011;10320;49.482;11.256;2022-12-11T09:53:43;15.70;;;14.10;;
20324;SDS011;10320;49.482;11.256;2022-12-11T10:01:32;14.83;;;13.27;;
20324;SDS011;10320;49.482;11.256;2022-12-11T10:04:06;15.13;;;13.53;;
20324;SDS011;10320;49.482;11.256;2022-12-11T10:16:57;14.47;;;13.03;;
20324;SDS011;10320;49.482;11.256;2022-12-11T10:19:26;14.37;;;12.97;;
20324;SDS011;10320;49.482;11.256;2022-12-11T10:21:53;15.07;;;13.57;;
20324;SDS011;10320;49.482;11.256;2022-12-11T10:24:37;15.10;;;13.60;;
20324;SDS011;10320;49.482;11.256;2022-12-11T10:27:12;12.90;;;11.60;;
20324;SDS011;10320;49.482;11.256;2022-12-11T10:29:39;14.33;;;12.93;;
20324;SDS011;10320;49.482;11.256;2022-12-11T10:32:05;12.57;;;11.27;;
20324;SDS011;10320;49.482;11.256;2022-12-11T10:34:41;12.10;;;10.87;;
20324;SDS011;10320;49.482;11.256;2022-12-11T10:37:08;12.13;;;10.87;;
20324;SDS011;10320;49.482;11.256;2022-12-11T10:39:35;12.70;;;11.50;;
20324;SDS011;10320;49.482;11.256;2022-12-11T10:42:01;11.73;;;10.53;;
20324;SDS011;10320;49.482;11.256;2022-12-11T10:44:36;12.90;;;11.60;;
20324;SDS011;10320;49.482;11.256;2022-12-11T10:49:29;11.90;;;10.70;;
20324;SDS011;10320;49.482;11.256;2022-12-11T10:51:55;11.53;;;10.33;;
20324;SDS011;10320;49.482;11.256;2022-12-11T10:56:57;11.37;;;10.27;;
20324;SDS011;10320;49.482;11.256;2022-12-11T10:59:31;13.40;;;11.73;;
20324;SDS011;10320;49.482;11.256;2022-12-11T11:01:57;10.20;;;9.20;;
20324;SDS011;10320;49.482;11.256;2022-12-11T11:04:31;10.87;;;9.77;;
20324;SDS011;10320;49.482;11.256;2022-12-11T11:09:36;9.37;;;8.43;;
20324;SDS011;10320;49.482;11.256;2022-12-11T11:12:04;9.43;;;8.43;;
20324;SDS011;10320;49.482;11.256;2022-12-11T11:14:41;9.17;;;8.27;;
20324;SDS011;10320;49.482;11.256;2022-12-11T11:17:14;10.27;;;9.17;;
20324;SDS011;10320;49.482;11.256;2022-12-11T11:19:41;9.53;;;8.53;;
20324;SDS011;10320;49.482;11.256;2022-12-11T11:22:14;8.53;;;7.73;;
20324;SDS011;10320;49.482;11.256;2022-12-11T11:24:45;7.90;;;6.87;;
20324;SDS011;10320;49.482;11.256;2022-12-11T11:29:52;8.03;;;7.03;;
20324;SDS011;10320;49.482;11.256;2022-12-11T11:32:21;8.43;;;7.53;;
20324;SDS011;10320;49.482;11.256;2022-12-11T11:34:47;8.37;;;7.40;;
20324;SDS011;10320;49.482;11.256;2022-12-11T11:37:21;8.77;;;7.67;;
20324;SDS011;10320;49.482;11.256;2022-12-11T11:39:48;9.80;;;8.80;;
20324;SDS011;10320;49.482;11.256;2022-12-11T11:42:18;9.87;;;8.83;;
20324;SDS011;10320;49.482;11.256;2022-12-11T11:44:52;9.37;;;8.47;;
20324;SDS011;10320;49.482;11.256;2022-12-11T11:47:25;7.70;;;6.90;;
20324;SDS011;10320;49.482;11.256;2022-12-11T11:49:54;8.63;;;7.73;;
20324;SDS011;10320;49.482;11.256;2022-12-11T11:54:52;8.37;;;7.53;;
20324;SDS011;10320;49.482;11.256;2022-12-11T11:58:02;9.50;;;8.30;;
20324;SDS011;10320;49.482;11.256;2022-12-11T12:00:22;8.60;;;7.70;;
20324;SDS011;10320;49.482;11.256;2022-12-11T12:02:50;8.97;;;8.07;;
20324;SDS011;10320;49.482;11.256;2022-12-11T12:05:21;10.03;;;8.97;;
20324;SDS011;10320;49.482;11.256;2022-12-11T12:13:06;10.13;;;9.10;;
20324;SDS011;10320;49.482;11.256;2022-12-11T12:15:42;8.47;;;7.57;;
20324;SDS011;10320;49.482;11.256;2022-12-11T12:18:13;8.73;;;7.83;;
20324;SDS011;10320;49.482;11.256;2022-12-11T12:20:54;9.33;;;8.43;;
20324;SDS011;10320;49.482;11.256;2022-12-11T12:42:19;10.67;;;9.67;;
20324;SDS011;10320;49.482;11.256;2022-12-11T12:45:02;10.60;;;9.50;;
20324;SDS011;10320;49.482;11.256;2022-12-11T12:47:32;10.63;;;9.60;;
20324;SDS011;10320;49.482;11.256;2022-12-11T12:50:00;9.30;;;8.40;;
20324;SDS011;10320;49.482;11.256;2022-12-11T12:52:31;10.43;;;9.43;;
20324;SDS011;10320;49.482;11.256;2022-12-11T12:54:59;11.17;;;9.80;;
20324;SDS011;10320;49.482;11.256;2022-12-11T12:57:47;10.37;;;9.27;;
20324;SDS011;10320;49.482;11.256;2022-12-11T13:00:24;10.87;;;9.87;;
20324;SDS011;10320;49.482;11.256;2022-12-11T13:02:51;9.43;;;8.53;;
20324;SDS011;10320;49.482;11.256;2022-12-11T13:05:31;8.90;;;8.00;;
20324;SDS011;10320;49.482;11.256;2022-12-11T13:07:58;8.93;;;7.73;;
20324;SDS011;10320;49.482;11.256;2022-12-11T13:12:57;8.67;;;7.00;;
20324;SDS011;10320;49.482;11.256;2022-12-11T13:15:34;8.27;;;7.40;;
20324;SDS011;10320;49.482;11.256;2022-12-11T13:18:02;9.43;;;8.00;;
20324;SDS011;10320;49.482;11.256;2022-12-11T13:20:32;7.73;;;6.93;;
20324;SDS011;10320;49.482;11.256;2022-12-11T13:25:26;7.57;;;6.87;;
20324;SDS011;10320;49.482;11.256;2022-12-11T13:28:03;8.60;;;7.70;;
20324;SDS011;10320;49.482;11.256;2022-12-11T13:30:29;8.73;;;7.93;;
20324;SDS011;10320;49.482;11.256;2022-12-11T13:35:21;7.97;;;7.17;;
20324;SDS011;10320;49.482;11.256;2022-12-11T13:37:48;7.87;;;7.07;;
20324;SDS011;10320;49.482;11.256;2022-12-11T13:40:24;8.43;;;7.63;;
20324;SDS011;10320;49.482;11.256;2022-12-11T13:42:54;8.30;;;7.50;;
20324;SDS011;10320;49.482;11.256;2022-12-11T13:45:22;6.70;;;6.10;;
20324;SDS011;10320;49.482;11.256;2022-12-11T13:47:48;9.13;;;8.23;;
20324;SDS011;10320;49.482;11.256;2022-12-11T13:50:20;9.10;;;8.20;;
20324;SDS011;10320;49.482;11.256;2022-12-11T13:53:00;10.47;;;9.40;;
20324;SDS011;10320;49.482;11.256;2022-12-11T13:57:52;10.47;;;9.40;;
20324;SDS011;10320;49.482;11.256;2022-12-11T14:00:22;9.37;;;8.47;;
20324;SDS011;10320;49.482;11.256;2022-12-11T14:02:49;8.43;;;7.63;;
20324;SDS011;10320;49.482;11.256;2022-12-11T14:05:16;8.40;;;7.50;;
20324;SDS011;10320;49.482;11.256;2022-12-11T14:07:45;8.97;;;8.07;;
20324;SDS011;10320;49.482;11.256;2022-12-11T14:10:29;9.37;;;8.47;;
20324;SDS011;10320;49.482;11.256;2022-12-11T14:15:22;17.23;;;14.93;;
20324;SDS011;10320;49.482;11.256;2022-12-11T14:17:48;12.27;;;11.03;;
20324;SDS011;10320;49.482;11.256;2022-12-11T14:20:18;10.23;;;9.23;;
20324;SDS011;10320;49.482;11.256;2022-12-11T14:22:46;8.17;;;7.37;;
20324;SDS011;10320;49.482;11.256;2022-12-11T14:25:17;9.67;;;8.67;;
20324;SDS011;10320;49.482;11.256;2022-12-11T14:27:48;11.93;;;10.67;;
20324;SDS011;10320;49.482;11.256;2022-12-11T14:30:19;7.57;;;6.77;;
20324;SDS011;10320;49.482;11.256;2022-12-11T14:32:45;7.43;;;6.63;;
20324;SDS011;10320;49.482;11.256;2022-12-11T14:35:17;6.80;;;6.10;;
20324;SDS011;10320;49.482;11.256;2022-12-11T14:37:46;6.83;;;6.23;;
20324;SDS011;10320;49.482;11.256;2022-12-11T14:40:15;7.57;;;6.77;;
20324;SDS011;10320;49.482;11.256;2022-12-11T14:42:44;8.10;;;7.30;;
20324;SDS011;10320;49.482;11.256;2022-12-11T14:47:38;7.93;;;7.13;;
20324;SDS011;10320;49.482;11.256;2022-12-11T14:53:03;9.07;;;8.00;;
20324;SDS011;10320;49.482;11.256;2022-12-11T14:55:33;9.20;;;8.30;;
20324;SDS011;10320;49.482;11.256;2022-12-11T14:58:21;8.83;;;7.70;;
20324;SDS011;10320;49.482;11.256;2022-12-11T15:01:03;9.60;;;8.60;;
20324;SDS011;10320;49.482;11.256;2022-12-11T15:03:33;7.90;;;7.10;;
20324;SDS011;10320;49.482;11.256;2022-12-11T15:06:00;7.93;;;6.90;;
20324;SDS011;10320;49.482;11.256;2022-12-11T15:08:27;6.80;;;6.10;;
20324;SDS011;10320;49.482;11.256;2022-12-11T15:10:58;6.47;;;5.87;;
20324;SDS011;10320;49.482;11.256;2022-12-11T15:13:25;6.73;;;6.03;;
20324;SDS011;10320;49.482;11.256;2022-12-11T15:15:51;7.03;;;6.33;;
20324;SDS011;10320;49.482;11.256;2022-12-11T15:20:51;5.30;;;4.80;;
20324;SDS011;10320;49.482;11.256;2022-12-11T15:23:18;6.30;;;5.70;;
20324;SDS011;10320;49.482;11.256;2022-12-11T15:25:50;6.93;;;6.00;;
20324;SDS011;10320;49.482;11.256;2022-12-11T15:28:27;7.37;;;6.67;;
20324;SDS011;10320;49.482;11.256;2022-12-11T15:30:55;7.27;;;6.30;;
20324;SDS011;10320;49.482;11.256;2022-12-11T15:33:22;6.97;;;6.10;;
20324;SDS011;10320;49.482;11.256;2022-12-11T15:38:36;8.50;;;7.03;;
20324;SDS011;10320;49.482;11.256;2022-12-11T15:41:13;7.50;;;6.70;;
20324;SDS011;10320;49.482;11.256;2022-12-11T15:43:39;8.03;;;7.03;;
20324;SDS011;10320;49.482;11.256;2022-12-11T15:46:06;8.63;;;6.77;;
20324;SDS011;10320;49.482;11.256;2022-12-11T15:48:32;7.37;;;6.60;;
20324;SDS011;10320;49.482;11.256;2022-12-11T15:50:58;7.03;;;6.33;;
20324;SDS011;10320;49.482;11.256;2022-12-11T15:53:25;7.37;;;6.67;;
20324;SDS011;10320;49.482;11.256;2022-12-11T15:55:52;8.40;;;6.83;;
20324;SDS011;10320;49.482;11.256;2022-12-11T15:58:18;7.50;;;6.00;;
20324;SDS011;10320;49.482;11.256;2022-12-11T16:00:45;6.53;;;5.93;;
20324;SDS011;10320;49.482;11.256;2022-12-11T16:03:12;7.50;;;6.80;;
20324;SDS011;10320;49.482;11.256;2022-12-11T16:05:39;9.00;;;8.10;;